Point Of Rocks, Wyoming
Current Conditions -  °F | °C
As of 4:54 PM on Friday 19 Dec 2014 (Local Time) from KRKS Reporting Station
Broken Clouds Broken Clouds  
Wind Chill: 24°   Ceiling: 6000
Heat Index: 32°   Visibility: 10mi
Dew Point: 21°   Wind: 9mph
Humidity: 64%   Direction: 230°SW
Pressure: 30.08"   Gusts: NA
Location:  41.68°N, 108.79°W
Report Text: KRKS 192354Z AUTO 23008KT 10SM BKN060 00/M06 A3008 RMK AO2 SLP222 T00001061 10011 21011 50000
Loading
Personal Weather Stations






























Interactive Weather Map New forecast layout! Learn more

10-Day Weather Forecast

Advertisements
Track Severe Weather on mobile